createdAt,value
2018-03-04T00:01:17.702Z,0.90
2018-03-04T00:03:45.953Z,0.90
2018-03-04T00:06:15.156Z,0.90
2018-03-04T00:08:44.175Z,0.80
2018-03-04T00:11:12.428Z,0.90
2018-03-04T00:13:41.472Z,0.90
2018-03-04T00:16:09.719Z,0.80
2018-03-04T00:18:37.965Z,0.90
2018-03-04T00:21:06.235Z,0.90
2018-03-04T00:23:34.485Z,0.90
2018-03-04T00:26:02.734Z,0.90
2018-03-04T00:28:31.217Z,0.90
2018-03-04T00:30:59.463Z,0.90
2018-03-04T00:33:28.478Z,0.90
2018-03-04T00:35:56.746Z,0.90
2018-03-04T00:38:24.993Z,0.90
2018-03-04T00:40:53.229Z,0.90
2018-03-04T00:43:21.748Z,0.90
2018-03-04T00:45:49.986Z,1.00
2018-03-04T00:48:18.434Z,0.90
2018-03-04T00:50:47.463Z,1.00
2018-03-04T00:53:15.694Z,1.00
2018-03-04T00:55:43.931Z,0.90
2018-03-04T00:58:12.194Z,1.00
2018-03-04T01:00:40.434Z,1.00
2018-03-04T01:03:09.442Z,1.00
2018-03-04T01:05:37.833Z,1.00
2018-03-04T01:08:06.479Z,1.00
2018-03-04T01:10:35.504Z,1.10
2018-03-04T01:13:04.310Z,1.00
2018-03-04T01:15:32.551Z,1.10
2018-03-04T01:18:01.581Z,1.20
2018-03-04T01:20:29.846Z,1.20
2018-03-04T01:22:58.104Z,1.20
2018-03-04T01:25:27.109Z,1.20
2018-03-04T01:27:55.377Z,1.20
2018-03-04T01:30:23.617Z,1.20
2018-03-04T01:32:51.861Z,1.20
2018-03-04T01:35:20.135Z,1.20
2018-03-04T01:37:48.465Z,1.20
2018-03-04T01:40:17.480Z,1.30
2018-03-04T01:42:45.742Z,1.30
2018-03-04T01:45:13.985Z,1.30
2018-03-04T01:47:42.230Z,1.30
2018-03-04T01:50:10.704Z,1.30
2018-03-04T01:52:38.953Z,1.30
2018-03-04T01:55:07.956Z,1.40
2018-03-04T01:57:36.991Z,1.30
2018-03-04T02:00:05.241Z,1.30
2018-03-04T02:02:33.494Z,1.40
2018-03-04T02:05:02.613Z,1.40
2018-03-04T02:07:30.869Z,1.40
2018-03-04T02:10:00.035Z,1.40
2018-03-04T02:12:28.321Z,1.40
2018-03-04T02:14:56.561Z,1.40
2018-03-04T02:17:24.801Z,1.40
2018-03-04T02:19:53.834Z,1.40
2018-03-04T02:22:22.087Z,1.40
2018-03-04T02:24:50.342Z,1.40
2018-03-04T02:27:18.962Z,1.40
2018-03-04T02:29:47.213Z,1.40
2018-03-04T02:32:16.412Z,1.40
2018-03-04T02:34:44.686Z,1.40
2018-03-04T02:37:12.938Z,1.40
2018-03-04T02:39:41.333Z,1.40
2018-03-04T02:42:10.382Z,1.40
2018-03-04T02:44:38.630Z,1.30
2018-03-04T02:47:06.874Z,1.40
2018-03-04T02:49:35.322Z,1.40
2018-03-04T02:52:03.751Z,1.30
2018-03-04T02:54:32.922Z,1.30
2018-03-04T02:57:01.191Z,1.30
2018-03-04T02:59:29.432Z,1.30
2018-03-04T03:01:57.679Z,1.30
2018-03-04T03:04:27.003Z,1.30
2018-03-04T03:06:55.385Z,1.30
2018-03-04T03:09:23.672Z,1.30
2018-03-04T03:11:52.287Z,1.20
2018-03-04T03:14:20.550Z,1.30
2018-03-04T03:16:49.034Z,1.30
2018-03-04T03:19:17.313Z,1.30
2018-03-04T03:21:45.691Z,1.30
2018-03-04T03:24:14.059Z,1.30
2018-03-04T03:26:42.744Z,1.30
2018-03-04T03:29:11.266Z,1.20
2018-03-04T03:31:39.787Z,1.30
2018-03-04T03:34:08.373Z,1.30
2018-03-04T03:36:36.969Z,1.30
2018-03-04T03:39:05.220Z,1.20
2018-03-04T03:41:34.602Z,1.30
2018-03-04T03:44:02.935Z,1.30
2018-03-04T03:46:31.243Z,1.30
2018-03-04T03:48:59.658Z,1.30
2018-03-04T03:51:29.419Z,1.30
2018-03-04T03:53:57.669Z,1.30
2018-03-04T03:56:26.174Z,1.30
2018-03-04T03:58:54.429Z,1.30
2018-03-04T04:01:22.899Z,1.30
2018-03-04T04:03:51.392Z,1.40
2018-03-04T04:06:19.648Z,1.30
2018-03-04T04:08:48.908Z,1.30
2018-03-04T04:11:17.468Z,1.30
2018-03-04T04:13:46.211Z,1.30
2018-03-04T04:16:15.307Z,1.30
2018-03-04T04:18:44.343Z,1.40
2018-03-04T04:21:12.684Z,1.30
2018-03-04T04:23:41.134Z,1.30
2018-03-04T04:26:10.277Z,1.30
2018-03-04T04:28:38.519Z,1.30
2018-03-04T04:31:07.020Z,1.30
2018-03-04T04:33:36.085Z,1.30
2018-03-04T04:36:04.338Z,1.30
2018-03-04T04:38:32.602Z,1.30
2018-03-04T04:41:00.887Z,1.40
2018-03-04T04:43:29.126Z,1.40
2018-03-04T04:45:57.392Z,1.40
2018-03-04T04:48:25.666Z,1.40
2018-03-04T04:50:53.926Z,1.40
2018-03-04T04:53:22.162Z,1.40
2018-03-04T04:55:50.694Z,1.40
2018-03-04T04:58:18.946Z,1.40
2018-03-04T05:00:47.195Z,1.40
2018-03-04T05:03:15.473Z,1.40
2018-03-04T05:05:43.715Z,1.40
2018-03-04T05:08:12.721Z,1.40
2018-03-04T05:10:41.009Z,1.40
2018-03-04T05:13:09.251Z,1.40
2018-03-04T05:15:37.656Z,1.40
2018-03-04T05:18:06.690Z,1.40
2018-03-04T05:20:34.942Z,1.40
2018-03-04T05:23:03.211Z,1.40
2018-03-04T05:25:32.246Z,1.40
2018-03-04T05:28:00.494Z,1.40
2018-03-04T05:30:28.755Z,1.40
2018-03-04T05:32:58.070Z,1.40
2018-03-04T05:35:26.337Z,1.40
2018-03-04T05:37:55.353Z,1.40
2018-03-04T05:40:23.744Z,1.40
2018-03-04T05:42:51.991Z,1.40
2018-03-04T05:45:20.235Z,1.40
2018-03-04T05:47:48.517Z,1.40
2018-03-04T05:50:16.773Z,1.40
2018-03-04T05:52:45.018Z,1.40
2018-03-04T05:55:13.298Z,1.40
2018-03-04T05:57:41.777Z,1.40
2018-03-04T06:00:10.030Z,1.40
2018-03-04T06:02:38.302Z,1.40
2018-03-04T06:05:07.318Z,1.40
2018-03-04T06:07:35.599Z,1.40
2018-03-04T06:10:03.882Z,1.40
2018-03-04T06:12:32.130Z,1.40
2018-03-04T06:15:01.182Z,1.40
2018-03-04T06:17:29.622Z,1.40
2018-03-04T06:19:58.817Z,1.50
2018-03-04T06:22:27.050Z,1.40
2018-03-04T06:24:55.338Z,1.40
2018-03-04T06:27:23.577Z,1.50
2018-03-04T06:29:51.829Z,1.40
2018-03-04T06:32:20.337Z,1.50
2018-03-04T06:34:48.766Z,1.50
2018-03-04T06:37:17.786Z,1.50
2018-03-04T06:39:46.150Z,1.50
2018-03-04T06:42:15.163Z,1.50
2018-03-04T06:44:43.419Z,1.50
2018-03-04T06:47:11.680Z,1.50
2018-03-04T06:49:39.926Z,1.50
2018-03-04T06:52:08.170Z,1.50
2018-03-04T06:54:36.450Z,1.50
2018-03-04T06:57:04.701Z,1.60
2018-03-04T06:59:33.711Z,1.50
2018-03-04T07:02:02.094Z,1.50
2018-03-04T07:04:30.375Z,1.60
2018-03-04T07:06:58.627Z,1.50
2018-03-04T07:09:27.669Z,1.60
2018-03-04T07:11:55.926Z,1.60
2018-03-04T07:14:24.175Z,1.60
2018-03-04T07:16:53.214Z,1.60
2018-03-04T07:19:21.846Z,1.60
2018-03-04T07:21:50.863Z,1.60
2018-03-04T07:24:19.253Z,1.60
2018-03-04T07:26:47.497Z,1.70
2018-03-04T07:29:16.517Z,1.70
2018-03-04T07:31:44.802Z,1.60
2018-03-04T07:34:13.022Z,1.70
2018-03-04T07:36:41.274Z,1.70
2018-03-04T07:39:09.905Z,1.70
2018-03-04T07:41:44.825Z,1.70
2018-03-04T07:44:13.108Z,1.70
2018-03-04T07:46:41.352Z,1.80
2018-03-04T07:49:09.594Z,1.80
2018-03-04T07:51:37.997Z,1.80
2018-03-04T07:54:06.248Z,1.80
2018-03-04T07:56:39.270Z,1.90
2018-03-04T07:59:08.411Z,1.90
2018-03-04T08:01:38.566Z,2.10
2018-03-04T08:04:06.836Z,2.00
2018-03-04T08:06:35.195Z,2.10
2018-03-04T08:09:04.202Z,2.30
2018-03-04T08:11:33.641Z,2.20
2018-03-04T08:14:01.874Z,2.30
2018-03-04T08:16:30.891Z,2.40
2018-03-04T08:18:59.162Z,2.50
2018-03-04T08:21:27.535Z,2.60
2018-03-04T08:23:55.782Z,2.70
2018-03-04T08:26:35.999Z,2.80
2018-03-04T08:29:04.242Z,2.90
2018-03-04T08:31:32.490Z,3.00
2018-03-04T08:34:00.838Z,3.10
2018-03-04T08:36:29.246Z,3.10
2018-03-04T08:38:57.530Z,3.20
2018-03-04T08:41:25.808Z,3.20
2018-03-04T08:43:54.050Z,3.30
2018-03-04T08:46:22.305Z,3.30
2018-03-04T08:48:50.798Z,3.30
2018-03-04T08:51:19.044Z,3.40
2018-03-04T08:53:47.373Z,3.50
2018-03-04T08:56:15.635Z,3.40
2018-03-04T08:58:43.912Z,3.30
2018-03-04T09:01:12.323Z,3.20
2018-03-04T09:03:40.608Z,3.20
2018-03-04T09:06:08.857Z,3.30
2018-03-04T09:08:37.158Z,3.30
2018-03-04T09:11:06.781Z,3.30
2018-03-04T09:13:35.808Z,3.50
2018-03-04T09:16:04.049Z,3.50
2018-03-04T09:18:32.698Z,3.50
2018-03-04T09:21:00.947Z,3.60
2018-03-04T09:23:29.400Z,3.60
2018-03-04T09:25:58.457Z,3.70
2018-03-04T09:28:26.695Z,3.60
2018-03-04T09:30:54.942Z,3.70
2018-03-04T09:33:23.210Z,3.70
2018-03-04T09:35:51.459Z,3.60
2018-03-04T09:38:19.694Z,3.70
2018-03-04T09:40:48.151Z,3.80
2018-03-04T09:43:17.173Z,4.00
2018-03-04T09:45:45.418Z,4.00
2018-03-04T09:48:13.693Z,4.10
2018-03-04T09:50:42.102Z,4.10
2018-03-04T09:53:10.366Z,4.00
2018-03-04T09:55:39.386Z,4.10
2018-03-04T09:58:07.771Z,4.00
2018-03-04T10:00:36.011Z,4.00
2018-03-04T10:03:04.302Z,4.10
2018-03-04T10:05:32.540Z,4.20
2018-03-04T10:08:00.805Z,4.30
2018-03-04T10:10:29.078Z,4.30
2018-03-04T10:12:57.322Z,4.40
2018-03-04T10:15:25.578Z,4.60
2018-03-04T10:17:56.508Z,5.00
2018-03-04T10:20:24.790Z,4.90
2018-03-04T10:22:53.401Z,5.10
2018-03-04T10:25:21.718Z,5.50
2018-03-04T10:27:49.963Z,5.80
2018-03-04T10:30:19.383Z,6.00
2018-03-04T10:32:47.633Z,6.20
2018-03-04T10:35:16.202Z,6.30
2018-03-04T10:37:44.861Z,6.70
2018-03-04T10:40:13.285Z,7.00
2018-03-04T10:42:41.521Z,7.30
2018-03-04T10:45:09.778Z,7.40
2018-03-04T10:47:38.050Z,7.70
2018-03-04T10:50:06.311Z,7.90
2018-03-04T10:52:34.563Z,7.90
2018-03-04T10:55:02.840Z,7.80
2018-03-04T10:57:31.086Z,7.90
2018-03-04T11:00:07.020Z,8.10
2018-03-04T11:02:38.266Z,8.20
2018-03-04T11:05:06.513Z,8.30
2018-03-04T11:07:34.785Z,8.10
2018-03-04T11:10:03.038Z,8.00
2018-03-04T11:12:32.091Z,8.30
2018-03-04T11:15:00.352Z,8.20
2018-03-04T11:17:28.604Z,8.40
2018-03-04T11:19:56.849Z,8.60
2018-03-04T11:22:25.152Z,8.70
2018-03-04T11:24:53.463Z,8.40
2018-03-04T11:27:22.214Z,8.40
2018-03-04T11:29:51.248Z,8.90
2018-03-04T11:32:19.485Z,8.90
2018-03-04T11:34:47.731Z,9.10
2018-03-04T11:37:16.022Z,9.40
2018-03-04T11:39:44.288Z,9.70
2018-03-04T11:42:13.330Z,9.50
2018-03-04T11:44:41.604Z,9.50
2018-03-04T11:47:09.858Z,9.90
2018-03-04T11:49:39.148Z,10.50
2018-03-04T11:52:07.963Z,10.50
2018-03-04T11:54:36.221Z,10.80
2018-03-04T11:57:04.466Z,11.00
2018-03-04T11:59:32.928Z,11.30
2018-03-04T12:02:01.190Z,11.30
2018-03-04T12:04:29.445Z,11.30
2018-03-04T12:06:57.722Z,11.30
2018-03-04T12:09:26.041Z,11.50
2018-03-04T12:11:54.634Z,11.70
2018-03-04T12:14:23.674Z,12.30
2018-03-04T12:16:52.066Z,12.30
2018-03-04T12:19:20.402Z,12.50
2018-03-04T12:21:48.705Z,12.80
2018-03-04T12:24:16.967Z,13.00
2018-03-04T12:26:45.221Z,13.30
2018-03-04T12:29:14.651Z,13.40
2018-03-04T12:31:42.973Z,13.40
2018-03-04T12:34:11.227Z,13.50
2018-03-04T12:36:40.314Z,13.70
2018-03-04T12:39:08.514Z,13.70
2018-03-04T12:41:36.991Z,13.80
2018-03-04T12:44:05.279Z,13.80
2018-03-04T12:46:33.530Z,13.60
2018-03-04T12:49:02.572Z,13.30
2018-03-04T12:51:30.849Z,13.30
2018-03-04T12:53:59.102Z,12.90
2018-03-04T12:56:27.371Z,12.60
2018-03-04T12:58:55.655Z,12.20
2018-03-04T13:01:23.930Z,12.00
2018-03-04T13:03:52.178Z,11.80
2018-03-04T13:06:21.521Z,11.50
2018-03-04T13:08:49.766Z,11.50
2018-03-04T13:11:18.785Z,11.10
2018-03-04T13:13:47.209Z,11.10
2018-03-04T13:16:15.489Z,11.30
2018-03-04T13:18:43.746Z,11.50
2018-03-04T13:21:12.786Z,11.60
2018-03-04T13:23:41.796Z,11.70
2018-03-04T13:26:10.058Z,11.70
2018-03-04T13:28:38.337Z,12.00
2018-03-04T13:31:06.925Z,12.40
2018-03-04T13:33:35.926Z,13.20
2018-03-04T13:36:04.321Z,13.20
2018-03-04T13:38:32.591Z,13.60
2018-03-04T13:41:01.211Z,14.00
2018-03-04T13:43:29.503Z,14.20
2018-03-04T13:45:58.866Z,14.40
2018-03-04T13:48:27.118Z,14.40
2018-03-04T13:50:56.154Z,14.60
2018-03-04T13:53:25.182Z,14.60
2018-03-04T13:55:53.449Z,14.50
2018-03-04T13:58:25.251Z,14.50
2018-03-04T14:00:53.509Z,14.20
2018-03-04T14:03:21.770Z,14.00
2018-03-04T14:05:50.418Z,13.90
2018-03-04T14:08:18.682Z,13.70
2018-03-04T14:10:46.925Z,13.60
2018-03-04T14:13:15.981Z,13.30
2018-03-04T14:15:44.211Z,13.30
2018-03-04T14:18:12.466Z,13.30
2018-03-04T14:20:40.897Z,13.10
2018-03-04T14:23:09.153Z,13.30
2018-03-04T14:25:37.414Z,13.50
2018-03-04T14:28:05.691Z,13.70
2018-03-04T14:30:34.716Z,14.00
2018-03-04T14:33:03.165Z,14.00
2018-03-04T14:35:32.209Z,14.30
2018-03-04T14:38:00.454Z,14.30
2018-03-04T14:40:28.707Z,14.50
2018-03-04T14:42:56.964Z,14.50
2018-03-04T14:45:25.230Z,14.50
2018-03-04T14:47:53.480Z,14.50
2018-03-04T14:50:21.755Z,14.70
2018-03-04T14:52:50.060Z,14.70
2018-03-04T14:55:18.278Z,14.70
2018-03-04T14:57:47.324Z,14.40
2018-03-04T15:00:15.569Z,14.40
2018-03-04T15:02:43.823Z,13.90
2018-03-04T15:05:12.451Z,13.30
2018-03-04T15:07:40.709Z,13.00
2018-03-04T15:10:08.954Z,12.80
2018-03-04T15:12:37.995Z,12.30
2018-03-04T15:15:06.255Z,12.30
2018-03-04T15:17:35.264Z,11.80
2018-03-04T15:20:03.539Z,11.80
2018-03-04T15:22:31.788Z,11.60
2018-03-04T15:25:00.809Z,11.10
2018-03-04T15:27:29.190Z,11.00
2018-03-04T15:29:57.434Z,10.90
2018-03-04T15:32:26.455Z,10.50
2018-03-04T15:34:54.918Z,10.50
2018-03-04T15:37:24.040Z,10.30
2018-03-04T15:39:52.287Z,10.20
2018-03-04T15:42:21.401Z,9.90
2018-03-04T15:44:50.529Z,9.90
2018-03-04T15:47:18.784Z,9.80
2018-03-04T15:49:47.082Z,9.70
2018-03-04T15:52:15.319Z,9.60
2018-03-04T15:54:44.330Z,9.40
2018-03-04T15:57:12.618Z,9.30
2018-03-04T15:59:40.968Z,9.30
2018-03-04T16:02:09.995Z,9.00
2018-03-04T16:04:38.254Z,9.00
2018-03-04T16:07:06.502Z,8.90
2018-03-04T16:09:35.510Z,8.80
2018-03-04T16:12:04.618Z,8.70
2018-03-04T16:14:32.861Z,8.70
2018-03-04T16:17:01.887Z,8.50
2018-03-04T16:19:33.669Z,8.50
2018-03-04T16:22:01.925Z,8.50
2018-03-04T16:24:30.175Z,8.40
2018-03-04T16:26:58.452Z,8.30
2018-03-04T16:29:26.705Z,8.20
2018-03-04T16:31:54.951Z,8.20
2018-03-04T16:34:23.343Z,8.10
2018-03-04T16:36:51.916Z,8.10
2018-03-04T16:39:20.903Z,7.90
2018-03-04T16:41:49.168Z,7.90
2018-03-04T16:44:17.407Z,7.90
2018-03-04T16:46:45.656Z,7.80
2018-03-04T16:49:14.117Z,7.70
2018-03-04T16:51:42.353Z,7.70
2018-03-04T16:54:11.387Z,7.60
2018-03-04T16:56:40.822Z,7.60
2018-03-04T16:59:09.050Z,7.50
2018-03-04T17:01:37.303Z,7.50
2018-03-04T17:04:06.332Z,7.40
2018-03-04T17:06:34.578Z,7.30
2018-03-04T17:09:03.616Z,7.30
2018-03-04T17:11:31.889Z,7.30
2018-03-04T17:14:00.302Z,7.20
2018-03-04T17:16:28.570Z,7.20
2018-03-04T17:18:56.907Z,7.20
2018-03-04T17:21:25.162Z,7.10
2018-03-04T17:23:54.169Z,7.00
2018-03-04T17:26:22.457Z,7.00
2018-03-04T17:28:50.713Z,7.00
2018-03-04T17:31:19.725Z,6.90
2018-03-04T17:33:48.010Z,6.90
2018-03-04T17:36:16.270Z,6.80
2018-03-04T17:38:45.571Z,6.80
2018-03-04T17:41:14.610Z,6.70
2018-03-04T17:43:42.896Z,6.70
2018-03-04T17:46:11.147Z,6.70
2018-03-04T17:48:39.446Z,6.60
2018-03-04T17:51:07.701Z,6.50
2018-03-04T17:53:35.946Z,6.50
2018-03-04T17:56:04.222Z,6.40
2018-03-04T17:58:32.467Z,6.20
2018-03-04T18:01:00.734Z,6.10
2018-03-04T18:03:29.404Z,6.10
2018-03-04T18:05:57.844Z,6.00
2018-03-04T18:08:26.931Z,5.90
2018-03-04T18:10:55.446Z,5.90
2018-03-04T18:13:23.690Z,5.90
2018-03-04T18:15:51.943Z,5.80
2018-03-04T18:18:20.236Z,5.80
2018-03-04T18:20:48.523Z,5.70
2018-03-04T18:23:16.848Z,5.60
2018-03-04T18:25:45.445Z,5.60
2018-03-04T18:28:13.702Z,5.50
2018-03-04T18:30:41.954Z,5.40
2018-03-04T18:33:10.219Z,5.40
2018-03-04T18:35:39.468Z,5.30
2018-03-04T18:38:07.726Z,5.20
2018-03-04T18:40:36.592Z,5.30
2018-03-04T18:43:05.615Z,5.20
2018-03-04T18:45:33.869Z,5.10
2018-03-04T18:48:02.906Z,5.00
2018-03-04T18:50:31.246Z,5.00
2018-03-04T18:52:59.797Z,5.00
2018-03-04T18:55:28.361Z,4.90
2018-03-04T18:57:56.640Z,4.90
2018-03-04T19:00:24.882Z,4.90
2018-03-04T19:02:53.158Z,4.80
2018-03-04T19:05:21.402Z,4.80
2018-03-04T19:07:49.654Z,4.70
2018-03-04T19:10:17.963Z,4.70
2018-03-04T19:12:46.449Z,4.60
2018-03-04T19:15:14.711Z,4.70
2018-03-04T19:17:43.000Z,4.60
2018-03-04T19:20:11.391Z,4.60
2018-03-04T19:22:39.646Z,4.60
2018-03-04T19:25:08.703Z,4.50
2018-03-04T19:27:36.954Z,4.50
2018-03-04T19:30:05.333Z,4.50
2018-03-04T19:32:33.629Z,4.40
2018-03-04T19:35:01.902Z,4.40
2018-03-04T19:37:30.330Z,4.40
2018-03-04T19:39:58.834Z,4.30
2018-03-04T19:42:28.256Z,4.30
2018-03-04T19:44:56.498Z,4.20
2018-03-04T19:47:25.174Z,4.20
2018-03-04T19:49:53.475Z,4.20
2018-03-04T19:52:21.717Z,4.20
2018-03-04T19:54:49.993Z,4.10
2018-03-04T19:57:18.241Z,4.10
2018-03-04T19:59:46.729Z,4.00
2018-03-04T20:02:15.040Z,4.10
2018-03-04T20:04:43.917Z,4.10
2018-03-04T20:07:12.193Z,4.10
2018-03-04T20:09:40.594Z,4.10
2018-03-04T20:12:09.272Z,4.20
2018-03-04T20:14:37.504Z,4.20
2018-03-04T20:17:05.827Z,4.20
2018-03-04T20:19:34.439Z,4.20
2018-03-04T20:22:06.058Z,4.10
2018-03-04T20:24:34.703Z,4.10
2018-03-04T20:27:02.947Z,4.10
2018-03-04T20:29:32.466Z,4.20
2018-03-04T20:32:00.839Z,4.20
2018-03-04T20:34:29.978Z,4.20
2018-03-04T20:36:58.349Z,4.20
2018-03-04T20:39:26.723Z,4.20
2018-03-04T20:41:54.978Z,4.20
2018-03-04T20:44:24.367Z,4.20
2018-03-04T20:46:53.818Z,4.20
2018-03-04T20:49:22.099Z,4.20
2018-03-04T20:51:50.412Z,4.20
2018-03-04T20:54:20.052Z,4.10
2018-03-04T20:56:49.425Z,4.20
2018-03-04T20:59:17.965Z,4.10
2018-03-04T21:01:46.661Z,4.10
2018-03-04T21:04:14.976Z,4.10
2018-03-04T21:06:43.379Z,4.10
2018-03-04T21:09:12.674Z,4.10
2018-03-04T21:11:41.234Z,4.10
2018-03-04T21:14:09.661Z,4.10
2018-03-04T21:16:38.232Z,4.10
2018-03-04T21:19:07.292Z,4.10
2018-03-04T21:21:35.543Z,4.10
2018-03-04T21:24:03.974Z,3.90
2018-03-04T21:26:32.997Z,3.80
2018-03-04T21:29:01.266Z,3.80
2018-03-04T21:31:30.301Z,3.80
2018-03-04T21:33:58.542Z,3.70
2018-03-04T21:36:26.789Z,3.70
2018-03-04T21:38:55.067Z,3.80
2018-03-04T21:41:23.308Z,3.90
2018-03-04T21:43:51.726Z,3.90
2018-03-04T21:46:20.151Z,4.00
2018-03-04T21:48:48.414Z,4.00
2018-03-04T21:51:16.671Z,4.10
2018-03-04T21:53:45.708Z,4.10
2018-03-04T21:56:13.954Z,4.10
2018-03-04T21:58:42.193Z,4.20
2018-03-04T22:01:10.462Z,4.20
2018-03-04T22:03:39.819Z,4.10
2018-03-04T22:06:08.083Z,4.10
2018-03-04T22:08:37.441Z,4.20
2018-03-04T22:11:05.698Z,4.10
2018-03-04T22:13:34.934Z,4.20
2018-03-04T22:16:03.178Z,4.10
2018-03-04T22:18:31.453Z,4.10
2018-03-04T22:20:59.703Z,4.10
2018-03-04T22:23:27.981Z,4.10
2018-03-04T22:25:56.248Z,4.10
2018-03-04T22:28:25.278Z,4.20
2018-03-04T22:30:54.262Z,4.10
2018-03-04T22:33:22.908Z,4.20
2018-03-04T22:35:52.159Z,4.20
2018-03-04T22:38:20.457Z,4.10
2018-03-04T22:40:48.926Z,4.20
2018-03-04T22:43:17.674Z,4.10
2018-03-04T22:45:46.171Z,4.20
2018-03-04T22:48:14.852Z,4.20
2018-03-04T22:50:43.459Z,4.20
2018-03-04T22:53:11.901Z,4.20
2018-03-04T22:55:40.375Z,4.20
2018-03-04T22:58:09.057Z,4.20
2018-03-04T23:00:37.373Z,4.20
2018-03-04T23:03:05.658Z,4.20
2018-03-04T23:05:34.181Z,4.20
2018-03-04T23:08:02.558Z,4.20
2018-03-04T23:10:31.141Z,4.20
2018-03-04T23:12:59.493Z,4.20
2018-03-04T23:15:27.749Z,4.20
2018-03-04T23:17:56.010Z,4.10
2018-03-04T23:20:25.175Z,4.00
2018-03-04T23:22:53.792Z,4.00
2018-03-04T23:25:22.305Z,4.00
2018-03-04T23:27:50.534Z,4.00
2018-03-04T23:30:19.580Z,4.10
2018-03-04T23:32:47.818Z,4.10
2018-03-04T23:35:16.487Z,4.10
2018-03-04T23:37:44.800Z,4.10
2018-03-04T23:40:13.290Z,4.10
2018-03-04T23:42:41.534Z,4.00
2018-03-04T23:45:09.818Z,4.00
2018-03-04T23:47:38.141Z,4.00
2018-03-04T23:50:07.360Z,4.00
2018-03-04T23:52:35.850Z,4.00
2018-03-04T23:55:04.108Z,4.00
2018-03-04T23:57:32.449Z,4.00
